sensor_id;sensor_type;location;lat;lon;timestamp;pressure;altitude;pressure_sealevel;temperature;humidity
8707;BME280;75512;49.302;9.306;2024-01-30T00:02:17;101191.84;;;1.28;54.06
8707;BME280;75512;49.302;9.306;2024-01-30T00:04:44;101197.78;;;1.30;53.92
8707;BME280;75512;49.302;9.306;2024-01-30T00:07:13;101183.75;;;1.38;53.70
8707;BME280;75512;49.302;9.306;2024-01-30T00:09:41;101188.78;;;1.43;53.85
8707;BME280;75512;49.302;9.306;2024-01-30T00:12:09;101181.44;;;1.56;53.24
8707;BME280;75512;49.302;9.306;2024-01-30T00:14:37;101181.13;;;1.40;53.42
8707;BME280;75512;49.302;9.306;2024-01-30T00:17:04;101186.00;;;1.49;53.25
8707;BME280;75512;49.302;9.306;2024-01-30T00:19:32;101187.78;;;1.47;53.52
8707;BME280;75512;49.302;9.306;2024-01-30T00:22:00;101188.63;;;1.47;53.17
8707;BME280;75512;49.302;9.306;2024-01-30T00:24:29;101179.69;;;1.31;53.28
8707;BME280;75512;49.302;9.306;2024-01-30T00:26:56;101187.72;;;1.49;53.51
8707;BME280;75512;49.302;9.306;2024-01-30T00:29:24;101185.44;;;1.39;53.43
8707;BME280;75512;49.302;9.306;2024-01-30T00:31:56;101192.34;;;1.39;53.69
8707;BME280;75512;49.302;9.306;2024-01-30T00:34:24;101183.75;;;1.38;53.86
8707;BME280;75512;49.302;9.306;2024-01-30T00:36:52;101193.59;;;1.52;52.99
8707;BME280;75512;49.302;9.306;2024-01-30T00:39:20;101192.50;;;1.34;53.93
8707;BME280;75512;49.302;9.306;2024-01-30T00:41:49;101190.75;;;1.35;54.00
8707;BME280;75512;49.302;9.306;2024-01-30T00:44:17;101188.56;;;1.49;53.16
8707;BME280;75512;49.302;9.306;2024-01-30T00:46:45;101182.31;;;1.30;53.29
8707;BME280;75512;49.302;9.306;2024-01-30T00:49:13;101183.06;;;1.33;53.79
8707;BME280;75512;49.302;9.306;2024-01-30T00:51:40;101190.09;;;1.28;53.35
8707;BME280;75512;49.302;9.306;2024-01-30T00:54:08;101186.75;;;1.26;53.89
8707;BME280;75512;49.302;9.306;2024-01-30T00:56:36;101185.00;;;1.27;54.19
8707;BME280;75512;49.302;9.306;2024-01-30T00:59:05;101188.47;;;1.26;53.72
8707;BME280;75512;49.302;9.306;2024-01-30T01:01:32;101186.50;;;1.34;53.53
8707;BME280;75512;49.302;9.306;2024-01-30T01:04:00;101191.66;;;1.34;52.91
8707;BME280;75512;49.302;9.306;2024-01-30T01:06:28;101186.78;;;1.25;53.25
8707;BME280;75512;49.302;9.306;2024-01-30T01:08:56;101190.03;;;1.05;54.67
8707;BME280;75512;49.302;9.306;2024-01-30T01:11:25;101193.19;;;1.13;53.90
8707;BME280;75512;49.302;9.306;2024-01-30T01:13:52;101194.78;;;1.17;53.95
8707;BME280;75512;49.302;9.306;2024-01-30T01:16:21;101184.59;;;1.14;54.15
8707;BME280;75512;49.302;9.306;2024-01-30T01:18:49;101191.53;;;1.12;54.34
8707;BME280;75512;49.302;9.306;2024-01-30T01:21:17;101191.47;;;1.13;53.94
8707;BME280;75512;49.302;9.306;2024-01-30T01:23:44;101199.75;;;1.23;53.07
8707;BME280;75512;49.302;9.306;2024-01-30T01:26:12;101198.13;;;1.21;53.49
8707;BME280;75512;49.302;9.306;2024-01-30T01:28:40;101197.00;;;1.01;53.96
8707;BME280;75512;49.302;9.306;2024-01-30T01:31:08;101193.41;;;1.07;53.47
8707;BME280;75512;49.302;9.306;2024-01-30T01:33:37;101190.38;;;1.21;53.39
8707;BME280;75512;49.302;9.306;2024-01-30T01:36:06;101192.56;;;1.06;54.22
8707;BME280;75512;49.302;9.306;2024-01-30T01:38:33;101189.78;;;1.12;53.51
8707;BME280;75512;49.302;9.306;2024-01-30T01:41:01;101198.31;;;1.15;54.37
8707;BME280;75512;49.302;9.306;2024-01-30T01:43:29;101200.69;;;1.21;53.48
8707;BME280;75512;49.302;9.306;2024-01-30T01:45:56;101195.13;;;1.06;53.80
8707;BME280;75512;49.302;9.306;2024-01-30T01:48:24;101195.28;;;1.02;53.60
8707;BME280;75512;49.302;9.306;2024-01-30T01:50:54;101197.84;;;1.02;54.19
8707;BME280;75512;49.302;9.306;2024-01-30T01:53:22;101192.56;;;1.06;53.65
8707;BME280;75512;49.302;9.306;2024-01-30T01:55:50;101192.88;;;0.97;54.46
8707;BME280;75512;49.302;9.306;2024-01-30T01:58:19;101192.50;;;1.08;53.56
8707;BME280;75512;49.302;9.306;2024-01-30T02:00:49;101191.09;;;0.98;54.50
8707;BME280;75512;49.302;9.306;2024-01-30T02:03:18;101192.03;;;0.97;53.74
8707;BME280;75512;49.302;9.306;2024-01-30T02:05:48;101188.25;;;1.07;53.53
8707;BME280;75512;49.302;9.306;2024-01-30T02:08:18;101189.28;;;1.01;54.20
8707;BME280;75512;49.302;9.306;2024-01-30T02:10:45;101182.81;;;0.88;53.79
8707;BME280;75512;49.302;9.306;2024-01-30T02:13:13;101190.97;;;1.02;54.28
8707;BME280;75512;49.302;9.306;2024-01-30T02:15:41;101190.06;;;1.03;53.47
8707;BME280;75512;49.302;9.306;2024-01-30T02:18:09;101188.47;;;0.99;53.73
8707;BME280;75512;49.302;9.306;2024-01-30T02:20:37;101191.41;;;0.89;54.09
8707;BME280;75512;49.302;9.306;2024-01-30T02:23:07;101191.31;;;0.92;54.48
8707;BME280;75512;49.302;9.306;2024-01-30T02:25:40;101188.94;;;0.84;54.06
8707;BME280;75512;49.302;9.306;2024-01-30T02:28:10;101194.41;;;0.73;54.66
8707;BME280;75512;49.302;9.306;2024-01-30T02:30:38;101187.22;;;0.85;54.06
8707;BME280;75512;49.302;9.306;2024-01-30T02:33:06;101190.81;;;0.79;53.59
8707;BME280;75512;49.302;9.306;2024-01-30T02:35:34;101186.81;;;0.70;54.16
8707;BME280;75512;49.302;9.306;2024-01-30T02:38:02;101183.94;;;0.79;54.54
8707;BME280;75512;49.302;9.306;2024-01-30T02:40:31;101186.16;;;0.92;53.90
8707;BME280;75512;49.302;9.306;2024-01-30T02:42:59;101178.25;;;0.70;54.33
8707;BME280;75512;49.302;9.306;2024-01-30T02:45:27;101185.00;;;0.72;54.11
8707;BME280;75512;49.302;9.306;2024-01-30T02:47:55;101184.28;;;0.69;54.94
8707;BME280;75512;49.302;9.306;2024-01-30T02:50:23;101182.56;;;0.69;54.53
8707;BME280;75512;49.302;9.306;2024-01-30T02:52:50;101179.81;;;0.74;54.29
8707;BME280;75512;49.302;9.306;2024-01-30T02:55:18;101188.34;;;0.76;54.34
8707;BME280;75512;49.302;9.306;2024-01-30T02:57:47;101184.06;;;0.75;53.76
8707;BME280;75512;49.302;9.306;2024-01-30T03:00:15;101188.03;;;0.59;54.41
8707;BME280;75512;49.302;9.306;2024-01-30T03:02:43;101179.03;;;0.72;54.07
8707;BME280;75512;49.302;9.306;2024-01-30T03:05:10;101181.53;;;0.73;53.99
8707;BME280;75512;49.302;9.306;2024-01-30T03:07:38;101174.78;;;0.71;54.38
8707;BME280;75512;49.302;9.306;2024-01-30T03:10:07;101173.94;;;0.70;54.28
8707;BME280;75512;49.302;9.306;2024-01-30T03:12:35;101177.47;;;0.68;53.99
8707;BME280;75512;49.302;9.306;2024-01-30T03:15:04;101179.97;;;0.69;53.79
8707;BME280;75512;49.302;9.306;2024-01-30T03:17:32;101183.72;;;0.59;54.13
8707;BME280;75512;49.302;9.306;2024-01-30T03:19:59;101174.94;;;0.66;53.74
8707;BME280;75512;49.302;9.306;2024-01-30T03:22:27;101182.50;;;0.71;54.26
8707;BME280;75512;49.302;9.306;2024-01-30T03:24:55;101188.91;;;0.58;54.47
8707;BME280;75512;49.302;9.306;2024-01-30T03:27:23;101194.72;;;0.64;54.21
8707;BME280;75512;49.302;9.306;2024-01-30T03:29:50;101182.03;;;0.58;54.34
8707;BME280;75512;49.302;9.306;2024-01-30T03:32:19;101184.88;;;0.77;53.33
8707;BME280;75512;49.302;9.306;2024-01-30T03:34:47;101180.88;;;0.68;53.95
8707;BME280;75512;49.302;9.306;2024-01-30T03:37:15;101185.41;;;0.60;53.71
8707;BME280;75512;49.302;9.306;2024-01-30T03:39:42;101190.66;;;0.57;54.70
8707;BME280;75512;49.302;9.306;2024-01-30T03:42:10;101194.03;;;0.59;53.59
8707;BME280;75512;49.302;9.306;2024-01-30T03:44:38;101189.63;;;0.63;54.72
8707;BME280;75512;49.302;9.306;2024-01-30T03:47:05;101184.78;;;0.52;54.18
8707;BME280;75512;49.302;9.306;2024-01-30T03:49:34;101189.84;;;0.55;54.42
8707;BME280;75512;49.302;9.306;2024-01-30T03:52:03;101187.19;;;0.58;54.55
8707;BME280;75512;49.302;9.306;2024-01-30T03:54:30;101187.63;;;0.44;54.54
8707;BME280;75512;49.302;9.306;2024-01-30T03:56:58;101188.47;;;0.45;54.18
8707;BME280;75512;49.302;9.306;2024-01-30T03:59:26;101200.78;;;0.34;55.17
8707;BME280;75512;49.302;9.306;2024-01-30T04:01:54;101196.31;;;0.40;54.91
8707;BME280;75512;49.302;9.306;2024-01-30T04:04:22;101190.19;;;0.44;54.78
8707;BME280;75512;49.302;9.306;2024-01-30T04:06:51;101191.50;;;0.58;54.35
8707;BME280;75512;49.302;9.306;2024-01-30T04:09:18;101189.97;;;0.51;54.83
8707;BME280;75512;49.302;9.306;2024-01-30T04:11:46;101189.34;;;0.44;54.63
8707;BME280;75512;49.302;9.306;2024-01-30T04:14:14;101186.28;;;0.31;54.89
8707;BME280;75512;49.302;9.306;2024-01-30T04:16:41;101191.91;;;0.44;55.02
8707;BME280;75512;49.302;9.306;2024-01-30T04:19:09;101182.34;;;0.47;54.36
8707;BME280;75512;49.302;9.306;2024-01-30T04:21:37;101187.38;;;0.52;54.25
8707;BME280;75512;49.302;9.306;2024-01-30T04:24:06;101190.78;;;0.53;53.81
8707;BME280;75512;49.302;9.306;2024-01-30T04:26:34;101190.81;;;0.51;54.36
8707;BME280;75512;49.302;9.306;2024-01-30T04:29:03;101190.19;;;0.44;54.97
8707;BME280;75512;49.302;9.306;2024-01-30T04:31:30;101197.66;;;0.52;53.84
8707;BME280;75512;49.302;9.306;2024-01-30T04:33:58;101198.25;;;0.32;54.71
8707;BME280;75512;49.302;9.306;2024-01-30T04:36:26;101197.41;;;0.32;54.33
8707;BME280;75512;49.302;9.306;2024-01-30T04:38:53;101195.38;;;0.43;54.93
8707;BME280;75512;49.302;9.306;2024-01-30T04:41:22;101188.72;;;0.36;54.27
8707;BME280;75512;49.302;9.306;2024-01-30T04:43:50;101187.88;;;0.35;54.86
8707;BME280;75512;49.302;9.306;2024-01-30T04:46:18;101186.56;;;0.50;54.16
8707;BME280;75512;49.302;9.306;2024-01-30T04:48:46;101183.00;;;0.54;53.99
8707;BME280;75512;49.302;9.306;2024-01-30T04:51:14;101190.81;;;0.51;53.65
8707;BME280;75512;49.302;9.306;2024-01-30T04:53:42;101186.44;;;0.55;53.72
8707;BME280;75512;49.302;9.306;2024-01-30T04:56:10;101181.84;;;0.36;54.01
8707;BME280;75512;49.302;9.306;2024-01-30T04:58:38;101193.53;;;0.46;54.25
8707;BME280;75512;49.302;9.306;2024-01-30T05:01:06;101192.53;;;0.23;54.50
8707;BME280;75512;49.302;9.306;2024-01-30T05:03:34;101181.88;;;0.05;55.04
8707;BME280;75512;49.302;9.306;2024-01-30T05:06:04;101190.31;;;0.10;54.22
8707;BME280;75512;49.302;9.306;2024-01-30T05:08:32;101200.28;;;0.21;54.71
8707;BME280;75512;49.302;9.306;2024-01-30T05:11:00;101193.38;;;0.23;54.48
8707;BME280;75512;49.302;9.306;2024-01-30T05:13:31;101202.97;;;-0.13;55.24
8707;BME280;75512;49.302;9.306;2024-01-30T05:16:01;101203.03;;;-0.14;55.15
8707;BME280;75512;49.302;9.306;2024-01-30T05:18:34;101201.81;;;-0.03;55.51
8707;BME280;75512;49.302;9.306;2024-01-30T05:21:02;101202.84;;;0.21;54.69
8707;BME280;75512;49.302;9.306;2024-01-30T05:23:31;101201.28;;;0.17;54.87
8707;BME280;75512;49.302;9.306;2024-01-30T05:25:59;101206.94;;;0.28;54.12
8707;BME280;75512;49.302;9.306;2024-01-30T05:28:29;101207.28;;;0.18;54.47
8707;BME280;75512;49.302;9.306;2024-01-30T05:30:57;101213.03;;;0.26;54.66
8707;BME280;75512;49.302;9.306;2024-01-30T05:33:26;101209.22;;;0.09;54.65
8707;BME280;75512;49.302;9.306;2024-01-30T05:35:54;101213.56;;;0.07;54.71
8707;BME280;75512;49.302;9.306;2024-01-30T05:38:21;101215.78;;;0.20;54.36
8707;BME280;75512;49.302;9.306;2024-01-30T05:40:49;101214.53;;;0.33;54.42
8707;BME280;75512;49.302;9.306;2024-01-30T05:43:17;101206.44;;;0.17;54.60
8707;BME280;75512;49.302;9.306;2024-01-30T05:45:45;101214.09;;;0.19;54.53
8707;BME280;75512;49.302;9.306;2024-01-30T05:48:12;101207.59;;;0.05;55.27
8707;BME280;75512;49.302;9.306;2024-01-30T05:50:42;101206.50;;;0.14;55.17
8707;BME280;75512;49.302;9.306;2024-01-30T05:53:09;101214.84;;;0.22;54.48
8707;BME280;75512;49.302;9.306;2024-01-30T05:55:37;101215.56;;;0.27;54.06
8707;BME280;75512;49.302;9.306;2024-01-30T05:58:05;101216.81;;;0.14;54.07
8707;BME280;75512;49.302;9.306;2024-01-30T06:00:33;101212.50;;;0.15;54.59
8707;BME280;75512;49.302;9.306;2024-01-30T06:03:00;101213.25;;;0.18;54.60
8707;BME280;75512;49.302;9.306;2024-01-30T06:05:28;101221.19;;;0.10;54.41
8707;BME280;75512;49.302;9.306;2024-01-30T06:07:57;101217.59;;;0.16;53.88
8707;BME280;75512;49.302;9.306;2024-01-30T06:10:25;101217.44;;;-0.09;54.77
8707;BME280;75512;49.302;9.306;2024-01-30T06:12:53;101213.63;;;-0.27;55.11
8707;BME280;75512;49.302;9.306;2024-01-30T06:15:20;101219.66;;;-0.28;55.97
8707;BME280;75512;49.302;9.306;2024-01-30T06:17:48;101216.66;;;-0.43;55.67
8707;BME280;75512;49.302;9.306;2024-01-30T06:20:16;101214.47;;;-0.26;56.00
8707;BME280;75512;49.302;9.306;2024-01-30T06:22:44;101214.47;;;-0.26;56.02
8707;BME280;75512;49.302;9.306;2024-01-30T06:25:13;101220.34;;;-0.21;55.69
8707;BME280;75512;49.302;9.306;2024-01-30T06:27:41;101219.91;;;-0.06;54.83
8707;BME280;75512;49.302;9.306;2024-01-30T06:30:10;101218.09;;;-0.02;54.68
8707;BME280;75512;49.302;9.306;2024-01-30T06:32:37;101205.84;;;-0.24;55.58
8707;BME280;75512;49.302;9.306;2024-01-30T06:35:06;101223.56;;;-0.13;55.06
8707;BME280;75512;49.302;9.306;2024-01-30T06:37:34;101225.00;;;-0.04;54.69
8707;BME280;75512;49.302;9.306;2024-01-30T06:40:02;101220.09;;;-0.12;54.64
8707;BME280;75512;49.302;9.306;2024-01-30T06:42:32;101220.75;;;-0.05;54.97
8707;BME280;75512;49.302;9.306;2024-01-30T06:45:00;101213.84;;;-0.03;55.01
8707;BME280;75512;49.302;9.306;2024-01-30T06:47:27;101223.81;;;-0.24;55.29
8707;BME280;75512;49.302;9.306;2024-01-30T06:49:57;101218.72;;;-0.25;55.71
8707;BME280;75512;49.302;9.306;2024-01-30T06:52:25;101227.31;;;-0.26;55.35
8707;BME280;75512;49.302;9.306;2024-01-30T06:54:53;101227.94;;;-0.16;55.10
8707;BME280;75512;49.302;9.306;2024-01-30T06:57:21;101228.56;;;-0.08;55.19
8707;BME280;75512;49.302;9.306;2024-01-30T06:59:50;101227.69;;;-0.07;54.86
8707;BME280;75512;49.302;9.306;2024-01-30T07:02:18;101224.97;;;-0.03;54.49
8707;BME280;75512;49.302;9.306;2024-01-30T07:04:46;101231.09;;;-0.07;54.65
8707;BME280;75512;49.302;9.306;2024-01-30T07:07:13;101230.41;;;-0.13;54.68
8707;BME280;75512;49.302;9.306;2024-01-30T07:09:42;101226.69;;;-0.03;54.49
8707;BME280;75512;49.302;9.306;2024-01-30T07:12:10;101225.56;;;-0.24;55.49
8707;BME280;75512;49.302;9.306;2024-01-30T07:14:38;101230.78;;;-0.27;55.50
8707;BME280;75512;49.302;9.306;2024-01-30T07:17:07;101233.03;;;-0.15;55.49
8707;BME280;75512;49.302;9.306;2024-01-30T07:19:34;101232.69;;;-0.03;54.78
8707;BME280;75512;49.302;9.306;2024-01-30T07:22:03;101238.91;;;-0.10;55.44
8707;BME280;75512;49.302;9.306;2024-01-30T07:24:30;101238.72;;;-0.04;55.07
8707;BME280;75512;49.302;9.306;2024-01-30T07:26:58;101226.47;;;0.06;54.64
8707;BME280;75512;49.302;9.306;2024-01-30T07:29:26;101238.34;;;0.10;54.80
8707;BME280;75512;49.302;9.306;2024-01-30T07:31:53;101235.63;;;0.16;54.71
8707;BME280;75512;49.302;9.306;2024-01-30T07:34:22;101231.56;;;0.07;54.60
8707;BME280;75512;49.302;9.306;2024-01-30T07:36:50;101229.78;;;0.09;54.72
8707;BME280;75512;49.302;9.306;2024-01-30T07:39:21;101231.22;;;0.20;55.06
8707;BME280;75512;49.302;9.306;2024-01-30T07:41:49;101235.88;;;0.07;55.16
8707;BME280;75512;49.302;9.306;2024-01-30T07:44:17;101232.44;;;0.06;55.85
8707;BME280;75512;49.302;9.306;2024-01-30T07:46:44;101236.06;;;-0.01;55.58
8707;BME280;75512;49.302;9.306;2024-01-30T07:49:12;101238.31;;;0.11;55.56
8707;BME280;75512;49.302;9.306;2024-01-30T07:51:42;101235.34;;;0.25;54.30
8707;BME280;75512;49.302;9.306;2024-01-30T07:54:11;101238.78;;;0.24;55.53
8707;BME280;75512;49.302;9.306;2024-01-30T07:56:39;101228.53;;;0.23;55.23
8707;BME280;75512;49.302;9.306;2024-01-30T07:59:09;101238.16;;;0.18;55.59
8707;BME280;75512;49.302;9.306;2024-01-30T08:01:37;101226.34;;;0.10;55.22
8707;BME280;75512;49.302;9.306;2024-01-30T08:04:05;101244.81;;;0.23;56.22
8707;BME280;75512;49.302;9.306;2024-01-30T08:06:33;101239.75;;;0.20;55.65
8707;BME280;75512;49.302;9.306;2024-01-30T08:09:02;101244.75;;;0.26;55.18
8707;BME280;75512;49.302;9.306;2024-01-30T08:11:31;101249.72;;;0.32;55.45
8707;BME280;75512;49.302;9.306;2024-01-30T08:13:58;101243.06;;;0.25;56.01
8707;BME280;75512;49.302;9.306;2024-01-30T08:16:26;101243.69;;;0.33;56.21
8707;BME280;75512;49.302;9.306;2024-01-30T08:18:54;101243.34;;;0.45;55.12
8707;BME280;75512;49.302;9.306;2024-01-30T08:21:24;101251.13;;;0.44;55.75
8707;BME280;75512;49.302;9.306;2024-01-30T08:23:52;101245.13;;;0.43;55.77
8707;BME280;75512;49.302;9.306;2024-01-30T08:26:21;101243.44;;;0.42;55.38
8707;BME280;75512;49.302;9.306;2024-01-30T08:28:48;101250.81;;;0.53;55.87
8707;BME280;75512;49.302;9.306;2024-01-30T08:31:16;101237.69;;;0.62;55.60
8707;BME280;75512;49.302;9.306;2024-01-30T08:33:44;101242.63;;;0.70;54.80
8707;BME280;75512;49.302;9.306;2024-01-30T08:36:15;101246.22;;;0.64;55.21
8707;BME280;75512;49.302;9.306;2024-01-30T08:38:43;101254.59;;;0.71;55.46
8707;BME280;75512;49.302;9.306;2024-01-30T08:41:10;101251.91;;;0.74;56.02
8707;BME280;75512;49.302;9.306;2024-01-30T08:43:40;101256.66;;;0.88;54.66
8707;BME280;75512;49.302;9.306;2024-01-30T08:46:07;101257.50;;;0.90;55.13
8707;BME280;75512;49.302;9.306;2024-01-30T08:48:35;101254.03;;;0.91;54.86
8707;BME280;75512;49.302;9.306;2024-01-30T08:51:04;101257.28;;;0.97;54.81
8707;BME280;75512;49.302;9.306;2024-01-30T08:53:35;101265.56;;;1.05;54.87
8707;BME280;75512;49.302;9.306;2024-01-30T08:56:03;101269.00;;;1.06;55.48
8707;BME280;75512;49.302;9.306;2024-01-30T08:58:31;101269.13;;;1.01;54.86
8707;BME280;75512;49.302;9.306;2024-01-30T09:01:00;101260.56;;;1.01;55.65
8707;BME280;75512;49.302;9.306;2024-01-30T09:03:30;101263.00;;;1.05;55.59
8707;BME280;75512;49.302;9.306;2024-01-30T09:05:58;101265.13;;;1.21;55.30
8707;BME280;75512;49.302;9.306;2024-01-30T09:08:25;101275.41;;;1.21;54.82
8707;BME280;75512;49.302;9.306;2024-01-30T09:10:53;101259.03;;;1.23;55.06
8707;BME280;75512;49.302;9.306;2024-01-30T09:13:21;101264.69;;;1.33;54.81
8707;BME280;75512;49.302;9.306;2024-01-30T09:15:49;101262.59;;;1.19;55.53
8707;BME280;75512;49.302;9.306;2024-01-30T09:18:18;101268.81;;;1.38;55.45
8707;BME280;75512;49.302;9.306;2024-01-30T09:20:46;101274.97;;;1.34;55.25
8707;BME280;75512;49.302;9.306;2024-01-30T09:23:14;101275.53;;;1.44;55.51
8707;BME280;75512;49.302;9.306;2024-01-30T09:25:41;101277.41;;;1.39;55.52
8707;BME280;75512;49.302;9.306;2024-01-30T09:28:09;101285.09;;;1.40;55.41
8707;BME280;75512;49.302;9.306;2024-01-30T09:30:37;101284.22;;;1.66;55.34
8707;BME280;75512;49.302;9.306;2024-01-30T09:33:05;101276.72;;;1.85;54.12
8707;BME280;75512;49.302;9.306;2024-01-30T09:35:34;101281.41;;;1.99;54.50
8707;BME280;75512;49.302;9.306;2024-01-30T09:38:01;101282.66;;;2.12;53.86
8707;BME280;75512;49.302;9.306;2024-01-30T09:40:29;101279.84;;;2.18;53.74
8707;BME280;75512;49.302;9.306;2024-01-30T09:42:58;101284.00;;;2.22;54.13
8707;BME280;75512;49.302;9.306;2024-01-30T09:45:26;101280.88;;;2.37;54.19
8707;BME280;75512;49.302;9.306;2024-01-30T09:47:54;101280.44;;;2.49;53.88
8707;BME280;75512;49.302;9.306;2024-01-30T09:50:22;101277.75;;;2.53;53.19
8707;BME280;75512;49.302;9.306;2024-01-30T09:52:51;101289.97;;;2.47;53.81
8707;BME280;75512;49.302;9.306;2024-01-30T09:55:21;101279.75;;;2.68;53.54
8707;BME280;75512;49.302;9.306;2024-01-30T09:57:50;101281.53;;;2.66;53.44
8707;BME280;75512;49.302;9.306;2024-01-30T10:00:17;101281.41;;;2.69;53.67
8707;BME280;75512;49.302;9.306;2024-01-30T10:02:46;101282.56;;;2.83;53.84
8707;BME280;75512;49.302;9.306;2024-01-30T10:05:15;101290.16;;;2.88;53.56
8707;BME280;75512;49.302;9.306;2024-01-30T10:07:54;101285.81;;;2.89;53.72
8707;BME280;75512;49.302;9.306;2024-01-30T10:10:23;101282.94;;;2.96;53.65
8707;BME280;75512;49.302;9.306;2024-01-30T10:12:51;101276.28;;;3.12;53.28
8707;BME280;75512;49.302;9.306;2024-01-30T10:15:19;101274.53;;;3.13;53.03
8707;BME280;75512;49.302;9.306;2024-01-30T10:17:46;101276.09;;;3.17;52.91
8707;BME280;75512;49.302;9.306;2024-01-30T10:20:14;101274.00;;;3.48;52.48
8707;BME280;75512;49.302;9.306;2024-01-30T10:22:42;101277.97;;;3.57;52.53
8707;BME280;75512;49.302;9.306;2024-01-30T10:25:12;101267.72;;;3.54;52.75
8707;BME280;75512;49.302;9.306;2024-01-30T10:27:40;101273.22;;;3.67;52.25
8707;BME280;75512;49.302;9.306;2024-01-30T10:30:08;101257.03;;;3.41;52.94
8707;BME280;75512;49.302;9.306;2024-01-30T10:32:35;101261.25;;;3.44;52.83
8707;BME280;75512;49.302;9.306;2024-01-30T10:35:03;101251.03;;;3.41;52.53
8707;BME280;75512;49.302;9.306;2024-01-30T10:37:31;101254.44;;;3.41;53.12
8707;BME280;75512;49.302;9.306;2024-01-30T10:40:03;101252.34;;;3.51;52.83
8707;BME280;75512;49.302;9.306;2024-01-30T10:42:36;101250.25;;;3.59;52.62
8707;BME280;75512;49.302;9.306;2024-01-30T10:45:06;101253.38;;;3.47;52.76
8707;BME280;75512;49.302;9.306;2024-01-30T10:47:35;101249.22;;;3.63;52.69
8707;BME280;75512;49.302;9.306;2024-01-30T10:50:04;101249.81;;;3.70;52.15
8707;BME280;75512;49.302;9.306;2024-01-30T10:52:32;101248.94;;;3.90;52.28
8707;BME280;75512;49.302;9.306;2024-01-30T10:55:00;101242.44;;;3.81;52.16
8707;BME280;75512;49.302;9.306;2024-01-30T10:57:31;101247.78;;;3.97;52.19
8707;BME280;75512;49.302;9.306;2024-01-30T11:00:04;101249.38;;;4.38;51.69
8707;BME280;75512;49.302;9.306;2024-01-30T11:02:37;101248.44;;;4.02;51.87
8707;BME280;75512;49.302;9.306;2024-01-30T11:05:06;101248.91;;;4.10;52.18
8707;BME280;75512;49.302;9.306;2024-01-30T11:07:35;101244.81;;;4.25;51.54
8707;BME280;75512;49.302;9.306;2024-01-30T11:10:04;101245.75;;;4.42;51.55
8707;BME280;75512;49.302;9.306;2024-01-30T11:12:38;101245.59;;;4.64;50.79
8707;BME280;75512;49.302;9.306;2024-01-30T11:15:09;101240.66;;;4.60;51.07
8707;BME280;75512;49.302;9.306;2024-01-30T11:17:45;101249.78;;;4.67;51.00
8707;BME280;75512;49.302;9.306;2024-01-30T11:20:15;101250.06;;;4.79;50.70
8707;BME280;75512;49.302;9.306;2024-01-30T11:22:45;101246.38;;;4.85;50.83
8707;BME280;75512;49.302;9.306;2024-01-30T11:25:13;101248.13;;;4.84;50.26
8707;BME280;75512;49.302;9.306;2024-01-30T11:27:42;101239.94;;;4.92;51.36
8707;BME280;75512;49.302;9.306;2024-01-30T11:30:21;101247.09;;;4.32;52.41
8707;BME280;75512;49.302;9.306;2024-01-30T11:32:59;101240.25;;;4.11;52.35
8707;BME280;75512;49.302;9.306;2024-01-30T11:35:30;101238.56;;;4.10;53.24
8707;BME280;75512;49.302;9.306;2024-01-30T11:37:59;101232.44;;;4.50;51.84
8707;BME280;75512;49.302;9.306;2024-01-30T11:40:27;101234.06;;;4.52;52.10
8707;BME280;75512;49.302;9.306;2024-01-30T11:42:56;101234.09;;;4.70;51.46
8707;BME280;75512;49.302;9.306;2024-01-30T11:45:27;101230.66;;;4.69;51.99
8707;BME280;75512;49.302;9.306;2024-01-30T11:47:55;101226.22;;;4.90;51.18
8707;BME280;75512;49.302;9.306;2024-01-30T11:50:24;101216.84;;;4.87;51.42
8707;BME280;75512;49.302;9.306;2024-01-30T11:52:53;101226.56;;;5.18;50.58
8707;BME280;75512;49.302;9.306;2024-01-30T11:55:21;101211.44;;;5.28;50.83
8707;BME280;75512;49.302;9.306;2024-01-30T11:57:49;101217.78;;;5.57;49.13
8707;BME280;75512;49.302;9.306;2024-01-30T12:00:18;101202.66;;;5.65;49.16
8707;BME280;75512;49.302;9.306;2024-01-30T12:02:50;101208.31;;;5.56;49.66
8707;BME280;75512;49.302;9.306;2024-01-30T12:05:21;101200.75;;;5.51;49.72
8707;BME280;75512;49.302;9.306;2024-01-30T12:07:50;101205.00;;;5.70;49.52
8707;BME280;75512;49.302;9.306;2024-01-30T12:10:18;101195.81;;;5.80;49.42
8707;BME280;75512;49.302;9.306;2024-01-30T12:12:47;101192.44;;;5.62;49.13
8707;BME280;75512;49.302;9.306;2024-01-30T12:15:16;101202.78;;;5.79;49.22
8707;BME280;75512;49.302;9.306;2024-01-30T12:17:44;101197.06;;;5.73;48.93
8707;BME280;75512;49.302;9.306;2024-01-30T12:20:14;101199.03;;;5.68;49.40
8707;BME280;75512;49.302;9.306;2024-01-30T12:22:44;101189.13;;;5.76;49.61
8707;BME280;75512;49.302;9.306;2024-01-30T12:25:12;101180.19;;;5.97;48.96
8707;BME280;75512;49.302;9.306;2024-01-30T12:27:42;101181.25;;;6.26;48.16
8707;BME280;75512;49.302;9.306;2024-01-30T12:30:12;101179.91;;;6.35;47.63
8707;BME280;75512;49.302;9.306;2024-01-30T12:32:41;101192.81;;;6.52;47.28
8707;BME280;75512;49.302;9.306;2024-01-30T12:35:10;101184.94;;;6.53;47.30
8707;BME280;75512;49.302;9.306;2024-01-30T12:37:40;101180.50;;;6.55;46.97
8707;BME280;75512;49.302;9.306;2024-01-30T12:40:08;101178.06;;;6.52;47.66
8707;BME280;75512;49.302;9.306;2024-01-30T12:42:36;101176.72;;;6.45;48.19
8707;BME280;75512;49.302;9.306;2024-01-30T12:45:05;101178.72;;;6.56;47.90
8707;BME280;75512;49.302;9.306;2024-01-30T12:47:33;101180.56;;;6.54;48.70
8707;BME280;75512;49.302;9.306;2024-01-30T12:50:01;101183.41;;;6.49;48.18
8707;BME280;75512;49.302;9.306;2024-01-30T12:52:29;101181.81;;;6.47;48.04
8707;BME280;75512;49.302;9.306;2024-01-30T12:54:59;101174.19;;;6.44;47.88
8707;BME280;75512;49.302;9.306;2024-01-30T12:57:26;101179.31;;;6.45;47.98
8707;BME280;75512;49.302;9.306;2024-01-30T12:59:54;101179.81;;;6.52;47.79
8707;BME280;75512;49.302;9.306;2024-01-30T13:02:22;101182.84;;;6.60;47.79
8707;BME280;75512;49.302;9.306;2024-01-30T13:04:50;101170.44;;;6.65;48.10
8707;BME280;75512;49.302;9.306;2024-01-30T13:07:18;101170.25;;;6.52;48.75
8707;BME280;75512;49.302;9.306;2024-01-30T13:09:47;101175.22;;;6.41;48.62
8707;BME280;75512;49.302;9.306;2024-01-30T13:12:16;101175.69;;;6.48;48.83
8707;BME280;75512;49.302;9.306;2024-01-30T13:14:44;101166.91;;;6.35;49.16
8707;BME280;75512;49.302;9.306;2024-01-30T13:17:11;101156.13;;;6.42;48.74